createdAt,value
2022-11-28T00:01:44.829Z,10.6
2022-11-28T00:03:49.063Z,19
2022-11-28T00:05:50.858Z,16.9
2022-11-28T00:07:52.661Z,13.9
2022-11-28T00:13:07.914Z,9.3
2022-11-28T00:15:09.704Z,11.8
2022-11-28T00:21:17.774Z,10.4
2022-11-28T00:23:19.540Z,16.6
2022-11-28T00:27:25.816Z,8.8
2022-11-28T00:29:27.607Z,11.4
2022-11-28T00:35:35.600Z,9.8
2022-11-28T00:37:40.087Z,10.8
2022-11-28T00:43:48.119Z,9.8
2022-11-28T00:49:56.180Z,9
2022-11-28T00:53:59.764Z,9.3
2022-11-28T00:56:04.240Z,14.2
2022-11-28T00:58:06.030Z,8.8
2022-11-28T01:00:07.823Z,9.5
2022-11-28T01:02:12.355Z,10
2022-11-28T01:04:14.122Z,9.3
2022-11-28T01:06:15.893Z,14.5
2022-11-28T01:08:20.357Z,12.1
2022-11-28T01:10:22.170Z,9.9
2022-11-28T01:12:23.934Z,18.1
2022-11-28T01:14:28.421Z,14
2022-11-28T01:16:30.338Z,11.4
2022-11-28T01:18:32.023Z,20.3
2022-11-28T01:20:36.499Z,10.3
2022-11-28T01:22:38.289Z,9.4
2022-11-28T01:24:40.407Z,11.4
2022-11-28T01:26:44.601Z,15.3
2022-11-28T01:28:46.365Z,10.3
2022-11-28T01:30:48.156Z,17.5
2022-11-28T01:32:52.615Z,17.5
2022-11-28T01:34:54.433Z,20.2
2022-11-28T01:36:56.215Z,9.2
2022-11-28T01:39:00.712Z,14
2022-11-28T01:41:02.473Z,10.9
2022-11-28T01:45:08.737Z,9.5
2022-11-28T01:51:16.802Z,17.4
2022-11-28T01:55:20.411Z,10
2022-11-28T01:57:24.898Z,12.6
2022-11-28T01:59:26.694Z,11.9
2022-11-28T02:01:28.591Z,12.5
2022-11-28T02:03:32.954Z,18.5
2022-11-28T02:05:34.756Z,19.1
2022-11-28T02:09:41.026Z,10.5
2022-11-28T02:11:42.831Z,19.4
2022-11-28T02:13:44.618Z,8.5
2022-11-28T02:15:49.192Z,12.5
2022-11-28T02:28:05.274Z,18.3
2022-11-28T02:30:07.068Z,10.1
2022-11-28T02:32:08.855Z,16.2
2022-11-28T02:34:13.355Z,11
2022-11-28T02:36:15.135Z,10.8
2022-11-28T02:38:16.963Z,12.3
2022-11-28T02:40:21.438Z,11
2022-11-28T02:44:25.037Z,12.9
2022-11-28T02:46:29.586Z,12
2022-11-28T02:54:39.668Z,18.6
2022-11-28T02:56:41.221Z,16.1
2022-11-28T02:58:45.689Z,11.8
2022-11-28T03:00:47.554Z,20
2022-11-28T03:02:49.309Z,10.2
2022-11-28T03:06:55.621Z,18.9
2022-11-28T03:08:57.451Z,13.9
2022-11-28T03:15:05.516Z,8.4
2022-11-28T03:23:18.085Z,8.9
2022-11-28T03:29:26.205Z,9.1
2022-11-28T03:31:28.095Z,7.6
2022-11-28T03:33:29.849Z,10.6
2022-11-28T03:37:36.147Z,9.5
2022-11-28T03:45:46.071Z,10
2022-11-28T03:53:58.682Z,10.5
2022-11-28T03:58:02.327Z,10.8
2022-11-28T04:05:15.414Z,8.7
2022-11-28T04:07:17.264Z,8.8
2022-11-28T04:15:29.849Z,8.3
2022-11-28T04:17:31.679Z,11.2
2022-11-28T04:19:33.496Z,9.1
2022-11-28T04:21:37.990Z,8.7
2022-11-28T04:23:39.803Z,8.4
2022-11-28T04:27:46.128Z,9.3
2022-11-28T04:29:47.950Z,10.6
2022-11-28T04:31:49.844Z,13.4
2022-11-28T04:33:54.255Z,8.4
2022-11-28T04:35:56.072Z,9
2022-11-28T04:37:57.869Z,9.3
2022-11-28T04:40:02.390Z,9.3
2022-11-28T04:44:05.989Z,10.8
2022-11-28T04:56:22.293Z,9.9
2022-11-28T04:58:26.771Z,9.7
2022-11-28T05:04:34.895Z,9.8
2022-11-28T05:10:42.993Z,10.7
2022-11-28T05:12:44.775Z,10.3
2022-11-28T05:14:46.631Z,10
2022-11-28T05:16:51.261Z,9.2
2022-11-28T05:18:52.983Z,10.1
2022-11-28T05:20:54.743Z,10
2022-11-28T05:22:59.230Z,9.4
2022-11-28T05:25:01.057Z,9.4
2022-11-28T05:27:02.880Z,9.5
2022-11-28T05:29:07.384Z,10.9
2022-11-28T05:31:09.231Z,9.3
2022-11-28T05:33:11.014Z,11.3
2022-11-28T05:35:15.490Z,11.3
2022-11-28T05:37:17.328Z,9.9
2022-11-28T05:39:19.151Z,9.7
2022-11-28T05:41:23.643Z,12
2022-11-28T05:43:25.480Z,9.8
2022-11-28T05:45:27.348Z,10.1
2022-11-28T05:47:31.750Z,9.5
2022-11-28T05:51:35.385Z,14.5
2022-11-28T05:53:39.898Z,9
2022-11-28T05:59:47.991Z,9.3
2022-11-28T06:01:49.906Z,8.5
2022-11-28T06:03:51.644Z,9.2
2022-11-28T06:07:58.071Z,7.1
2022-11-28T06:09:59.811Z,6.4
2022-11-28T06:16:07.995Z,7.8
2022-11-28T06:20:14.264Z,6.8
2022-11-28T06:31:30.485Z,7.3
2022-11-28T06:33:34.938Z,7.6
2022-11-28T06:35:36.760Z,6
2022-11-28T06:37:38.565Z,8.1
2022-11-28T06:39:43.411Z,6
2022-11-28T06:41:44.863Z,6.9
2022-11-28T06:43:46.691Z,6.2
2022-11-28T06:45:51.256Z,9.7
2022-11-28T06:47:53.007Z,6.5
2022-11-28T06:49:54.810Z,8.8
2022-11-28T06:56:02.944Z,6.6
2022-11-28T06:58:07.445Z,20.9
2022-11-28T07:11:11.037Z,4.4
2022-11-28T07:13:12.860Z,5.7
2022-11-28T07:23:27.256Z,8.8
2022-11-28T07:31:37.256Z,6.8
2022-11-28T07:39:47.149Z,6.3
2022-11-28T07:41:51.636Z,7.7
2022-11-28T07:47:59.799Z,8.1
2022-11-28T07:57:15.709Z,1.4
2022-11-28T07:59:17.500Z,8
2022-11-28T08:01:19.219Z,7.7
2022-11-28T08:03:23.578Z,8.5
2022-11-28T08:07:27.034Z,8.6
2022-11-28T08:21:47.615Z,10.9
2022-11-28T08:23:49.428Z,9.2
2022-11-28T08:25:51.270Z,9.3
2022-11-28T08:27:55.720Z,10.7
2022-11-28T08:29:57.556Z,9.6
2022-11-28T08:31:59.369Z,10.9
2022-11-28T08:34:03.870Z,9
2022-11-28T08:36:05.677Z,11.3
2022-11-28T08:38:07.529Z,11.8
2022-11-28T08:40:11.998Z,12.7
2022-11-28T08:42:13.789Z,13.8
2022-11-28T08:44:15.584Z,10.8
2022-11-28T08:46:20.217Z,12.2
2022-11-28T08:48:21.939Z,11.3
2022-11-28T08:50:23.730Z,12.1
2022-11-28T08:52:28.226Z,11.9
2022-11-28T08:56:31.890Z,12
2022-11-28T08:58:36.364Z,11.7
2022-11-28T09:00:38.879Z,12.8
2022-11-28T09:02:40.703Z,11.7
2022-11-28T09:06:47.033Z,12.5
2022-11-28T09:08:48.852Z,11.4
2022-11-28T09:10:53.345Z,14.3
2022-11-28T09:12:55.177Z,11.8
2022-11-28T09:14:56.992Z,12.5
2022-11-28T09:23:09.647Z,12
2022-11-28T09:25:11.564Z,11.2
2022-11-28T09:31:19.714Z,12.4
2022-11-28T09:33:21.463Z,11.1
2022-11-28T09:39:43.702Z,11.8
2022-11-28T09:41:34.122Z,18.6
2022-11-28T09:45:37.771Z,10.8
2022-11-28T09:47:42.297Z,9.3
2022-11-28T09:49:44.419Z,17
2022-11-28T09:53:50.304Z,9.8
2022-11-28T09:57:53.759Z,14.9
2022-11-28T09:59:58.266Z,10.1
2022-11-28T10:02:00.068Z,10
2022-11-28T10:04:02.088Z,11.8
2022-11-28T10:06:06.415Z,13.2
2022-11-28T10:08:08.296Z,11.8
2022-11-28T10:10:10.080Z,10.7
2022-11-28T10:12:14.577Z,11.9
2022-11-28T10:14:16.361Z,9.3
2022-11-28T10:18:22.704Z,17.6
2022-11-28T10:20:24.513Z,9.2
2022-11-28T10:22:26.366Z,9.2
2022-11-28T10:24:30.862Z,9
2022-11-28T10:26:32.698Z,12.1
2022-11-28T10:28:34.533Z,8.1
2022-11-28T10:30:39.126Z,9.4
2022-11-28T10:32:40.888Z,8.2
2022-11-28T10:34:42.717Z,7.7
2022-11-28T10:36:47.248Z,8.5
2022-11-28T10:38:49.066Z,7.6
2022-11-28T10:40:50.891Z,6.9
2022-11-28T10:42:55.415Z,7.9
2022-11-28T10:44:57.270Z,8
2022-11-28T10:46:59.071Z,8.3
2022-11-28T10:49:03.607Z,6.4
2022-11-28T10:51:05.426Z,7.5
2022-11-28T10:53:07.280Z,6
2022-11-28T10:55:11.789Z,6.4
2022-11-28T10:57:13.608Z,7.1
2022-11-28T10:59:15.344Z,7.7
2022-11-28T11:01:19.993Z,7.6
2022-11-28T11:03:21.480Z,7.6
2022-11-28T11:05:23.266Z,5.7
2022-11-28T11:09:29.639Z,6.9
2022-11-28T11:11:31.357Z,7.3
2022-11-28T11:13:35.888Z,7.8
2022-11-28T11:15:37.655Z,8.9
2022-11-28T11:17:39.355Z,8.5
2022-11-28T11:22:49.796Z,8.8
2022-11-28T11:26:53.484Z,7.9
2022-11-28T11:28:58.008Z,8.4
2022-11-28T11:30:59.830Z,8.1
2022-11-28T11:33:01.665Z,10.2
2022-11-28T11:38:13.780Z,9.7
2022-11-28T11:42:17.255Z,11.2
2022-11-28T11:49:30.400Z,13.1
2022-11-28T11:51:37.928Z,10.7
2022-11-28T11:53:36.752Z,15.7
2022-11-28T11:55:38.482Z,13.8
2022-11-28T11:57:40.212Z,12.6
2022-11-28T12:02:44.195Z,19.7
2022-11-28T12:06:47.628Z,21.3
2022-11-28T12:08:52.135Z,16.1
2022-11-28T12:10:53.999Z,17.7
2022-11-28T12:12:55.843Z,38.2
2022-11-28T12:22:10.878Z,21.7
2022-11-28T12:24:15.427Z,26.5
2022-11-28T12:26:17.263Z,21.3
2022-11-28T12:28:19.097Z,25
2022-11-28T12:30:23.604Z,19.6
2022-11-28T12:32:25.468Z,29.2
2022-11-28T12:34:27.204Z,28.3
2022-11-28T12:36:31.751Z,25.3
2022-11-28T12:38:33.575Z,57.3
2022-11-28T12:40:35.401Z,28.3
2022-11-28T12:42:39.941Z,26
2022-11-28T12:44:41.814Z,24.7
2022-11-28T12:46:43.654Z,27.1
2022-11-28T12:48:53.071Z,33
2022-11-28T12:50:49.999Z,26.1
2022-11-28T12:59:00.085Z,27.5
2022-11-28T13:07:12.788Z,28.4
2022-11-28T13:13:21.038Z,26.3
2022-11-28T13:15:22.861Z,29.8
2022-11-28T13:17:24.729Z,28.7
2022-11-28T13:21:31.091Z,35.4
2022-11-28T13:23:32.924Z,31
2022-11-28T13:25:37.425Z,29.1
2022-11-28T13:29:40.944Z,25.2
2022-11-28T13:31:45.401Z,29.7
2022-11-28T13:33:47.155Z,26.5
2022-11-28T13:46:03.081Z,26.7
2022-11-28T13:48:04.680Z,26.6
2022-11-28T13:50:09.099Z,35.6
2022-11-28T13:52:10.859Z,32.6
2022-11-28T13:54:12.593Z,30.9
2022-11-28T13:56:17.052Z,31.8
2022-11-28T13:58:18.896Z,24.9
2022-11-28T14:00:20.781Z,21.2
2022-11-28T14:02:25.351Z,23.2
2022-11-28T14:04:27.142Z,24.4
2022-11-28T14:06:28.983Z,25.6
2022-11-28T14:08:33.552Z,23.5
2022-11-28T14:10:35.399Z,15.7
2022-11-28T14:12:37.156Z,17.4
2022-11-28T14:19:50.463Z,33.3
2022-11-28T14:21:52.311Z,28.4
2022-11-28T14:23:56.829Z,28.6
2022-11-28T14:25:58.674Z,16.8
2022-11-28T14:34:08.777Z,32.5
2022-11-28T14:36:13.295Z,34.1
2022-11-28T14:38:16.872Z,23.3
2022-11-28T14:40:16.992Z,41
2022-11-28T14:42:58.260Z,20
2022-11-28T14:44:23.382Z,27.6
2022-11-28T14:46:25.290Z,30.3
2022-11-28T14:48:32.554Z,30.3
2022-11-28T14:52:39.895Z,25.1
2022-11-28T15:04:00.131Z,30.3
2022-11-28T15:05:37.219Z,31.3
2022-11-28T15:11:45.163Z,31.9
2022-11-28T15:22:58.322Z,54
2022-11-28T15:25:00.078Z,49.6
2022-11-28T15:27:01.808Z,55.6
2022-11-28T15:29:06.234Z,45.2
2022-11-28T15:31:07.992Z,51.5
2022-11-28T15:33:09.695Z,55.4
2022-11-28T15:35:14.229Z,44.9
2022-11-28T15:37:16.124Z,64.6
2022-11-28T15:39:17.903Z,56.4
2022-11-28T15:41:22.460Z,58.3
2022-11-28T15:43:24.251Z,64.5
2022-11-28T15:45:26.072Z,64.5
2022-11-28T15:47:30.492Z,70.6
2022-11-28T15:49:32.311Z,76.3
2022-11-28T15:51:34.077Z,64
2022-11-28T15:53:38.494Z,75.7
2022-11-28T15:57:41.939Z,69
2022-11-28T15:59:46.451Z,75.6
2022-11-28T16:01:48.292Z,77
2022-11-28T16:03:50.117Z,70
2022-11-28T16:22:16.757Z,75
2022-11-28T16:24:18.500Z,70
2022-11-28T16:26:20.272Z,79.4
2022-11-28T16:28:25.591Z,64.5
2022-11-28T16:30:27.465Z,77.4
2022-11-28T16:34:31.208Z,77.9
2022-11-28T16:36:32.999Z,72.5
2022-11-28T16:38:34.856Z,65.5
2022-11-28T16:40:36.716Z,72.1
2022-11-28T16:44:43.960Z,66.8
2022-11-28T16:46:45.791Z,74.3
2022-11-28T16:48:47.487Z,75.4
2022-11-28T16:50:49.259Z,72.5
2022-11-28T16:52:51.080Z,67.5
2022-11-28T17:01:02.095Z,73.2
2022-11-28T17:05:05.628Z,88.2
2022-11-28T17:08:09.090Z,82.5
2022-11-28T17:09:09.320Z,76.9
2022-11-28T17:11:15.244Z,80.1
2022-11-28T17:16:21.212Z,80.9
2022-11-28T17:19:25.186Z,81.5
2022-11-28T17:20:24.866Z,98
2022-11-28T17:24:50.343Z,101.5
2022-11-28T17:26:39.500Z,105.5
2022-11-28T17:28:35.440Z,102.6
2022-11-28T17:32:38.964Z,100.3
2022-11-28T17:36:42.503Z,86.6
2022-11-28T17:40:49.491Z,123.1
2022-11-28T17:42:52.361Z,120.5
2022-11-28T17:46:00.595Z,101.3
2022-11-28T17:46:54.722Z,106.9
2022-11-28T17:48:56.496Z,126.3
2022-11-28T17:57:06.997Z,129.1
2022-11-28T17:59:12.684Z,124.9
2022-11-28T18:01:10.686Z,131.9
2022-11-28T18:03:13.143Z,125.9
2022-11-28T18:08:10.484Z,139
2022-11-28T18:09:21.121Z,141.4
2022-11-28T18:11:44.132Z,132.1
2022-11-28T18:12:25.498Z,160.4
2022-11-28T18:14:39.351Z,141.1
2022-11-28T18:16:29.162Z,151.7
2022-11-28T18:19:00.369Z,134.3
2022-11-28T18:20:36.369Z,146.3
2022-11-28T18:22:38.220Z,145
2022-11-28T18:24:40.074Z,141.4
2022-11-28T18:26:41.917Z,154.3
2022-11-28T18:30:45.628Z,154.9
2022-11-28T18:32:47.470Z,136.5
2022-11-28T18:34:52.886Z,162.3
2022-11-28T18:36:54.715Z,136.9
2022-11-28T18:38:56.469Z,155.2
2022-11-28T18:40:58.270Z,144.1
2022-11-28T18:43:00.172Z,124.1
2022-11-28T18:45:01.963Z,139.6
2022-11-28T18:47:03.760Z,141.6
2022-11-28T18:49:09.030Z,146.3
2022-11-28T18:51:10.791Z,178.5
2022-11-28T18:53:12.678Z,154.8
2022-11-28T18:55:14.506Z,146.5
2022-11-28T18:57:16.375Z,171.4
2022-11-28T18:59:18.204Z,171.7
2022-11-28T19:01:20.143Z,160.3
2022-11-28T19:05:27.351Z,140.1
2022-11-28T19:07:29.264Z,177.7
2022-11-28T19:08:31.865Z,182.6
2022-11-28T19:10:33.721Z,191.9
2022-11-28T19:12:35.574Z,184.6
2022-11-28T19:16:42.897Z,155.4
2022-11-28T19:18:44.682Z,190.6
2022-11-28T19:20:46.673Z,204.1
2022-11-28T19:22:48.385Z,174.8
2022-11-28T19:24:50.232Z,202.3
2022-11-28T19:26:52.115Z,207.8
2022-11-28T19:28:54.122Z,174.1
2022-11-28T19:43:39.295Z,213.3
2022-11-28T19:47:17.583Z,214.8
2022-11-28T19:49:19.322Z,196.7
2022-11-28T19:51:21.154Z,234
2022-11-28T19:57:26.619Z,268.5
2022-11-28T20:01:33.939Z,223.8
2022-11-28T20:03:41.170Z,238.9
2022-11-28T20:10:52.791Z,637.6
2022-11-28T20:12:54.591Z,314.6
2022-11-28T20:14:59.091Z,526.1
2022-11-28T20:17:01.066Z,348.2
2022-11-28T20:21:44.724Z,394.6
2022-11-28T20:25:10.832Z,889.2
2022-11-28T20:27:21.442Z,564.3
2022-11-28T20:29:23.274Z,454.5
2022-11-28T20:31:25.178Z,331
2022-11-28T20:43:04.321Z,252
2022-11-28T20:45:06.140Z,278.4
2022-11-28T20:47:07.954Z,261.4
2022-11-28T20:49:12.425Z,280.2
2022-11-28T20:51:14.254Z,274.5
2022-11-28T20:55:20.751Z,312.3
2022-11-28T20:59:24.205Z,277
2022-11-28T21:01:28.851Z,342.5
2022-11-28T21:03:30.543Z,244.1
2022-11-28T21:05:32.339Z,269.1
2022-11-28T21:07:36.902Z,340.8
2022-11-28T21:09:38.698Z,253.6
2022-11-28T21:11:56.908Z,234.8
2022-11-28T21:13:47.175Z,271.2
2022-11-28T21:17:48.546Z,290.8
2022-11-28T21:26:53.484Z,251.1
2022-11-28T21:30:52.160Z,224.9
2022-11-28T21:35:04.097Z,277
2022-11-28T21:37:00.314Z,237.9
2022-11-28T21:39:04.815Z,260.8
2022-11-28T21:41:06.673Z,241
2022-11-28T21:43:08.477Z,265
2022-11-28T21:54:10.376Z,251.9
2022-11-28T21:56:12.217Z,231.6
2022-11-28T21:58:16.600Z,238.7
2022-11-28T22:00:45.600Z,240.7
2022-11-28T22:02:20.223Z,262.7
2022-11-28T22:09:33.157Z,263.4
2022-11-28T22:11:34.981Z,241.9
2022-11-28T22:13:39.514Z,265.4
2022-11-28T22:17:43.221Z,206.8
2022-11-28T22:19:47.707Z,221.9
2022-11-28T22:27:57.723Z,217.7
2022-11-28T22:34:05.861Z,208.5
2022-11-28T22:36:07.707Z,200.3
2022-11-28T22:45:17.488Z,219.3
2022-11-28T22:53:30.173Z,173.8
2022-11-28T22:55:31.997Z,235.1
2022-11-28T22:57:33.820Z,216.6
2022-11-28T22:59:38.336Z,213.1
2022-11-28T23:01:49.213Z,190.2
2022-11-28T23:03:41.926Z,215.3
2022-11-28T23:10:55.121Z,251
2022-11-28T23:12:56.864Z,275
2022-11-28T23:15:01.416Z,260.2
2022-11-28T23:17:03.213Z,210.9
2022-11-28T23:19:05.052Z,228.5
2022-11-28T23:59:10.300Z,189.8
